createdAt,value
2022-12-15T00:02:09.013Z,98757.16
2022-12-15T00:04:36.848Z,98757.53
2022-12-15T00:07:03.757Z,98764.59
2022-12-15T00:09:31.037Z,98765.13
2022-12-15T00:11:57.668Z,98764.22
2022-12-15T00:14:24.190Z,98772.06
2022-12-15T00:16:50.766Z,98760.25
2022-12-15T00:19:17.312Z,98753.53
2022-12-15T00:21:45.170Z,98751.81
2022-12-15T00:24:11.841Z,98763.38
2022-12-15T00:26:38.349Z,98762.41
2022-12-15T00:29:05.068Z,98760.38
2022-12-15T00:31:31.670Z,98769.00
2022-12-15T00:33:58.154Z,98777.06
2022-12-15T00:36:24.985Z,98778.53
2022-12-15T00:38:52.854Z,98769.72
2022-12-15T00:41:22.225Z,98777.78
2022-12-15T00:43:48.714Z,98779.66
2022-12-15T00:46:15.682Z,98790.16
2022-12-15T00:48:43.237Z,98791.81
2022-12-15T00:51:12.010Z,98792.78
2022-12-15T00:53:39.120Z,98791.19
2022-12-15T00:56:07.698Z,98791.84
2022-12-15T00:58:34.397Z,98793.88
2022-12-15T01:01:06.395Z,98802.38
2022-12-15T01:03:35.144Z,98803.03
2022-12-15T01:06:05.458Z,98800.91
2022-12-15T01:08:32.553Z,98796.53
2022-12-15T01:11:03.801Z,98791.31
2022-12-15T01:13:32.175Z,98793.00
2022-12-15T01:15:59.026Z,98789.03
2022-12-15T01:18:26.956Z,98786.34
2022-12-15T01:20:58.236Z,98791.75
2022-12-15T01:23:27.076Z,98791.69
2022-12-15T01:25:55.217Z,98795.28
2022-12-15T01:28:22.812Z,98805.19
2022-12-15T01:30:51.826Z,98804.00
2022-12-15T01:33:19.841Z,98808.09
2022-12-15T01:35:55.720Z,98810.59
2022-12-15T01:38:23.969Z,98814.34
2022-12-15T01:40:52.692Z,98807.75
2022-12-15T01:43:22.750Z,98812.34
2022-12-15T01:46:01.985Z,98807.97
2022-12-15T01:48:34.810Z,98823.06
2022-12-15T01:51:09.348Z,98826.31
2022-12-15T01:53:40.411Z,98827.13
2022-12-15T01:56:08.648Z,98844.19
2022-12-15T01:58:36.214Z,98840.56
2022-12-15T02:01:04.843Z,98851.53
2022-12-15T02:03:32.436Z,98844.75
2022-12-15T02:06:00.830Z,98844.59
2022-12-15T02:08:29.248Z,98840.03
2022-12-15T02:11:10.559Z,98839.00
2022-12-15T02:13:46.977Z,98836.63
2022-12-15T02:16:27.352Z,98843.78
2022-12-15T02:19:04.652Z,98845.50
2022-12-15T02:21:38.853Z,98846.06
2022-12-15T02:24:35.325Z,98843.00
2022-12-15T02:27:38.501Z,98848.63
2022-12-15T02:30:22.001Z,98861.19
2022-12-15T02:32:59.539Z,98855.91
2022-12-15T02:35:36.543Z,98845.59
2022-12-15T02:38:04.550Z,98850.75
2022-12-15T02:40:31.356Z,98861.00
2022-12-15T02:43:01.716Z,98863.16
2022-12-15T02:45:35.373Z,98872.13
2022-12-15T02:48:21.458Z,98867.59
2022-12-15T02:51:02.804Z,98877.31
2022-12-15T02:53:44.431Z,98877.72
2022-12-15T02:56:24.467Z,98865.38
2022-12-15T02:59:04.058Z,98875.25
2022-12-15T03:01:38.389Z,98877.25
2022-12-15T03:04:08.175Z,98886.19
2022-12-15T03:06:34.667Z,98886.66
2022-12-15T03:09:01.363Z,98883.94
2022-12-15T03:11:28.500Z,98890.28
2022-12-15T03:13:55.860Z,98887.81
2022-12-15T03:16:25.366Z,98888.16
2022-12-15T03:18:57.011Z,98895.94
2022-12-15T03:21:23.566Z,98900.47
2022-12-15T03:23:50.088Z,98902.47
2022-12-15T03:26:17.830Z,98895.97
2022-12-15T03:28:44.743Z,98899.47
2022-12-15T03:31:11.271Z,98898.69
2022-12-15T03:33:38.441Z,98906.75
2022-12-15T03:36:08.694Z,98905.31
2022-12-15T03:38:35.815Z,98905.75
2022-12-15T03:41:02.304Z,98919.16
2022-12-15T03:43:29.633Z,98930.34
2022-12-15T03:45:56.460Z,98939.34
2022-12-15T03:48:22.939Z,98934.72
2022-12-15T03:50:49.466Z,98929.47
2022-12-15T03:53:17.715Z,98926.22
2022-12-15T03:55:44.293Z,98922.28
2022-12-15T03:58:10.740Z,98928.53
2022-12-15T04:00:37.671Z,98923.34
2022-12-15T04:03:04.326Z,98913.56
2022-12-15T04:05:32.868Z,98913.59
2022-12-15T04:08:01.010Z,98922.44
2022-12-15T04:10:34.333Z,98921.81
2022-12-15T04:13:03.444Z,98931.59
2022-12-15T04:15:30.370Z,98929.91
2022-12-15T04:17:59.909Z,98923.00
2022-12-15T04:20:28.109Z,98914.38
2022-12-15T04:22:55.119Z,98909.31
2022-12-15T04:25:23.922Z,98906.63
2022-12-15T04:27:52.690Z,98914.63
2022-12-15T04:30:21.273Z,98914.53
2022-12-15T04:32:49.697Z,98919.78
2022-12-15T04:35:17.139Z,98930.63
2022-12-15T04:37:44.514Z,98925.38
2022-12-15T04:40:11.311Z,98916.97
2022-12-15T04:42:42.250Z,98921.44
2022-12-15T04:45:16.956Z,98922.06
2022-12-15T04:47:47.294Z,98921.06
2022-12-15T04:50:14.041Z,98913.31
2022-12-15T04:52:40.544Z,98910.59
2022-12-15T04:55:07.963Z,98911.03
2022-12-15T04:57:39.222Z,98921.75
2022-12-15T05:00:06.892Z,98924.34
2022-12-15T05:02:35.409Z,98928.66
2022-12-15T05:05:02.368Z,98941.88
2022-12-15T05:07:28.858Z,98939.56
2022-12-15T05:09:59.646Z,98937.97
2022-12-15T05:12:29.156Z,98934.53
2022-12-15T05:14:56.195Z,98942.25
2022-12-15T05:17:22.827Z,98939.78
2022-12-15T05:19:52.247Z,98948.63
2022-12-15T05:22:18.799Z,98954.81
2022-12-15T05:24:45.321Z,98950.28
2022-12-15T05:27:13.913Z,98959.13
2022-12-15T05:29:40.416Z,98960.78
2022-12-15T05:32:07.705Z,98958.94
2022-12-15T05:34:36.461Z,98960.13
2022-12-15T05:37:08.299Z,98958.13
2022-12-15T05:39:35.332Z,98954.66
2022-12-15T05:42:02.126Z,98970.53
2022-12-15T05:44:28.819Z,98964.25
2022-12-15T05:46:55.361Z,98959.72
2022-12-15T05:49:21.905Z,98967.59
2022-12-15T05:51:48.385Z,98966.88
2022-12-15T05:54:18.446Z,98976.97
2022-12-15T05:56:45.425Z,98989.31
2022-12-15T05:59:12.499Z,98987.38
2022-12-15T06:01:39.726Z,98990.00
2022-12-15T06:04:06.721Z,98987.19
2022-12-15T06:06:33.558Z,98983.59
2022-12-15T06:09:25.275Z,98985.03
2022-12-15T06:11:51.761Z,98988.53
2022-12-15T06:14:18.490Z,98982.13
2022-12-15T06:16:50.350Z,98982.13
2022-12-15T06:19:19.007Z,98981.28
2022-12-15T06:21:48.384Z,98985.66
2022-12-15T06:24:15.514Z,98994.25
2022-12-15T06:26:44.224Z,98987.13
2022-12-15T06:29:12.785Z,98992.25
2022-12-15T06:31:41.295Z,98988.09
2022-12-15T06:34:10.957Z,98996.09
2022-12-15T06:36:38.020Z,98997.53
2022-12-15T06:39:07.239Z,99000.66
2022-12-15T06:41:33.973Z,99006.66
2022-12-15T06:44:02.417Z,98992.78
2022-12-15T06:49:36.449Z,98997.31
2022-12-15T06:52:09.648Z,98997.47
2022-12-15T06:54:39.255Z,99001.19
2022-12-15T06:57:16.241Z,98996.44
2022-12-15T06:59:51.228Z,98983.91
2022-12-15T07:02:25.205Z,98978.38
2022-12-15T07:05:27.258Z,98999.72
2022-12-15T07:07:53.829Z,99007.81
2022-12-15T07:10:21.869Z,98996.06
2022-12-15T07:12:48.386Z,99011.81
2022-12-15T07:15:16.275Z,99008.94
2022-12-15T07:17:42.762Z,99013.63
2022-12-15T07:20:10.377Z,99014.03
2022-12-15T07:22:36.878Z,99015.84
2022-12-15T07:25:03.992Z,99019.31
2022-12-15T07:27:30.485Z,99022.09
2022-12-15T07:29:57.027Z,99027.97
2022-12-15T07:32:25.090Z,99025.69
2022-12-15T07:34:51.609Z,99031.34
2022-12-15T07:37:18.093Z,99029.09
2022-12-15T07:39:44.631Z,99032.47
2022-12-15T07:42:11.474Z,99025.44
2022-12-15T07:44:38.008Z,99041.41
2022-12-15T07:47:04.928Z,99037.56
2022-12-15T07:49:32.933Z,99038.94
2022-12-15T07:51:59.470Z,99036.00
2022-12-15T07:54:26.424Z,99034.50
2022-12-15T07:56:53.466Z,99037.38
2022-12-15T07:59:19.980Z,99033.84
2022-12-15T08:01:46.619Z,99041.19
2022-12-15T08:04:15.189Z,99042.91
2022-12-15T08:06:43.336Z,99039.50
2022-12-15T08:09:10.179Z,99037.53
2022-12-15T08:11:38.018Z,99037.34
2022-12-15T08:14:07.947Z,99038.00
2022-12-15T08:16:37.209Z,99038.78
2022-12-15T08:19:04.395Z,99036.88
2022-12-15T08:21:31.987Z,99043.75
2022-12-15T08:24:39.963Z,99041.44
2022-12-15T08:27:07.932Z,99040.31
2022-12-15T08:29:55.371Z,99030.41
2022-12-15T08:32:51.596Z,99028.53
2022-12-15T08:36:06.594Z,99046.78
2022-12-15T08:38:48.355Z,99040.66
2022-12-15T08:41:18.264Z,99055.72
2022-12-15T08:43:48.502Z,99048.31
2022-12-15T08:46:28.273Z,99052.56
2022-12-15T08:53:00.669Z,99052.66
2022-12-15T08:56:03.228Z,99042.25
2022-12-15T08:59:06.250Z,99063.72
2022-12-15T09:02:07.923Z,99065.13
2022-12-15T09:05:14.483Z,99051.78
2022-12-15T09:08:06.311Z,99065.31
2022-12-15T09:10:56.978Z,99068.28
2022-12-15T09:20:18.142Z,99098.66
2022-12-15T09:23:04.634Z,99085.75
2022-12-15T09:25:31.114Z,99099.09
2022-12-15T09:27:57.987Z,99112.88
2022-12-15T09:30:24.677Z,99122.28
2022-12-15T09:33:02.968Z,99100.56
2022-12-15T09:35:31.014Z,99116.50
2022-12-15T09:37:57.608Z,99120.38
2022-12-15T09:40:25.788Z,99122.69
2022-12-15T09:43:11.175Z,99126.59
2022-12-15T09:45:46.748Z,99130.94
2022-12-15T09:48:18.600Z,99126.25
2022-12-15T09:50:48.769Z,99139.47
2022-12-15T09:53:52.858Z,99142.50
2022-12-15T09:56:17.982Z,99138.25
2022-12-15T09:58:54.666Z,99136.69
2022-12-15T10:01:30.602Z,99132.09
2022-12-15T10:04:06.048Z,99130.34
2022-12-15T10:06:41.250Z,99129.91
2022-12-15T10:09:19.700Z,99119.25
2022-12-15T10:11:55.334Z,99116.34
2022-12-15T10:14:29.338Z,99125.94
2022-12-15T10:17:06.133Z,99128.41
2022-12-15T10:19:39.550Z,99120.00
2022-12-15T10:22:58.114Z,99122.69
2022-12-15T10:29:36.038Z,99117.38
2022-12-15T10:32:05.222Z,99121.41
2022-12-15T10:34:34.715Z,99125.13
2022-12-15T10:37:04.449Z,99122.75
2022-12-15T10:40:41.039Z,99136.94
2022-12-15T10:43:36.472Z,99123.78
2022-12-15T10:46:16.190Z,99149.50
2022-12-15T10:49:03.288Z,99139.31
2022-12-15T10:51:39.957Z,99130.69
2022-12-15T10:54:22.677Z,99145.88
2022-12-15T10:57:27.247Z,99122.75
2022-12-15T11:00:56.982Z,99120.34
2022-12-15T11:04:06.414Z,99127.63
2022-12-15T11:09:33.300Z,99117.09
2022-12-15T11:12:00.573Z,99122.88
2022-12-15T11:14:40.911Z,99124.44
2022-12-15T11:17:09.703Z,99124.69
2022-12-15T11:19:43.403Z,99122.78
2022-12-15T11:22:16.279Z,99114.81
2022-12-15T11:24:47.520Z,99112.91
2022-12-15T11:27:24.324Z,99117.13
2022-12-15T11:30:01.421Z,99121.88
2022-12-15T11:32:35.376Z,99120.13
2022-12-15T11:35:03.638Z,99118.94
2022-12-15T11:37:40.368Z,99117.94
2022-12-15T11:40:27.829Z,99109.81
2022-12-15T11:43:04.878Z,99105.66
2022-12-15T11:45:41.678Z,99094.84
2022-12-15T11:48:14.428Z,99101.03
2022-12-15T11:50:52.062Z,99098.97
2022-12-15T11:53:36.634Z,99090.25
2022-12-15T11:56:15.543Z,99091.44
2022-12-15T11:58:56.853Z,99088.53
2022-12-15T12:02:00.738Z,99094.97
2022-12-15T12:04:40.336Z,99094.16
2022-12-15T12:07:14.409Z,99097.38
2022-12-15T12:09:49.638Z,99089.28
2022-12-15T12:12:25.541Z,99101.22
2022-12-15T12:15:06.394Z,99092.81
2022-12-15T12:17:40.454Z,99098.63
2022-12-15T12:20:17.775Z,99091.03
2022-12-15T12:22:53.735Z,99088.56
2022-12-15T12:25:24.874Z,99104.00
2022-12-15T12:27:56.028Z,99102.06
2022-12-15T12:30:27.596Z,99105.00
2022-12-15T12:33:04.066Z,99108.47
2022-12-15T12:35:38.244Z,99097.28
2022-12-15T12:38:06.919Z,99099.53
2022-12-15T12:40:45.891Z,99096.44
2022-12-15T12:43:26.929Z,99083.88
2022-12-15T12:45:57.506Z,99090.22
2022-12-15T12:48:30.418Z,99090.00
2022-12-15T12:51:12.712Z,99074.84
2022-12-15T12:53:39.654Z,99070.78
2022-12-15T12:56:06.763Z,99065.88
2022-12-15T12:58:37.928Z,99063.09
2022-12-15T13:01:17.539Z,99063.78
2022-12-15T13:04:11.932Z,99039.88
2022-12-15T13:07:01.622Z,99051.53
2022-12-15T13:10:00.807Z,99026.72
2022-12-15T13:12:53.267Z,99035.75
2022-12-15T13:15:37.951Z,99021.25
2022-12-15T13:18:12.457Z,99016.56
2022-12-15T13:20:40.778Z,99022.59
2022-12-15T13:23:36.967Z,99002.81
2022-12-15T13:26:15.624Z,99012.53
2022-12-15T13:28:52.720Z,98991.84
2022-12-15T13:31:29.181Z,98995.34
2022-12-15T13:34:27.174Z,98989.50
2022-12-15T13:40:56.274Z,99002.16
2022-12-15T13:43:41.291Z,98993.59
2022-12-15T13:46:15.885Z,98978.28
2022-12-15T13:48:49.313Z,98975.94
2022-12-15T13:51:26.584Z,98984.19
2022-12-15T13:53:57.747Z,98961.41
2022-12-15T13:57:01.418Z,98973.84
2022-12-15T13:59:41.566Z,98982.72
2022-12-15T14:02:24.144Z,98979.72
2022-12-15T14:05:06.106Z,98976.78
2022-12-15T14:07:34.434Z,98969.84
2022-12-15T14:10:01.813Z,98972.59
2022-12-15T14:12:29.895Z,98970.13
2022-12-15T14:14:56.498Z,98966.13
2022-12-15T14:17:23.048Z,98964.13
2022-12-15T14:19:50.881Z,98967.63
2022-12-15T14:22:28.021Z,98964.97
2022-12-15T14:25:01.242Z,98958.88
2022-12-15T14:27:31.058Z,98965.22
2022-12-15T14:30:12.345Z,98959.22
2022-12-15T14:32:42.056Z,98958.31
2022-12-15T14:35:13.823Z,98950.59
2022-12-15T14:37:41.991Z,98944.81
2022-12-15T14:40:15.833Z,98938.22
2022-12-15T14:42:46.126Z,98934.59
2022-12-15T14:45:25.406Z,98933.34
2022-12-15T14:48:13.469Z,98929.25
2022-12-15T14:50:47.622Z,98926.28
2022-12-15T14:53:19.922Z,98921.53
2022-12-15T14:55:47.158Z,98928.63
2022-12-15T14:58:32.161Z,98929.53
2022-12-15T15:00:59.659Z,98921.06
2022-12-15T15:03:34.204Z,98928.75
2022-12-15T15:06:04.116Z,98927.25
2022-12-15T15:08:33.417Z,98934.13
2022-12-15T15:11:03.901Z,98940.00
2022-12-15T15:13:39.804Z,98935.41
2022-12-15T15:16:14.247Z,98941.97
2022-12-15T15:18:42.888Z,98940.50
2022-12-15T15:21:17.044Z,98942.47
2022-12-15T15:23:57.548Z,98945.00
2022-12-15T15:26:25.814Z,98943.28
2022-12-15T15:28:54.432Z,98949.00
2022-12-15T15:31:35.249Z,98941.94
2022-12-15T15:34:06.805Z,98950.94
2022-12-15T15:36:36.777Z,98955.50
2022-12-15T15:39:10.312Z,98956.22
2022-12-15T15:41:36.915Z,98956.59
2022-12-15T15:44:12.812Z,98957.97
2022-12-15T15:46:46.201Z,98970.72
2022-12-15T15:49:16.615Z,98978.84
2022-12-15T15:51:43.340Z,98984.16
2022-12-15T15:54:14.196Z,98992.88
2022-12-15T15:56:43.051Z,98996.63
2022-12-15T15:59:12.778Z,98999.69
2022-12-15T16:01:39.669Z,99007.13
2022-12-15T16:04:07.177Z,99013.56
2022-12-15T16:06:34.717Z,99011.81
2022-12-15T16:09:01.754Z,99009.38
2022-12-15T16:11:29.788Z,99016.53
2022-12-15T16:13:56.578Z,99007.94
2022-12-15T16:16:28.067Z,99010.50
2022-12-15T16:18:54.588Z,99030.19
2022-12-15T16:21:27.996Z,99024.53
2022-12-15T16:23:56.926Z,99033.13
2022-12-15T16:26:32.033Z,99023.53
2022-12-15T16:28:59.051Z,99028.88
2022-12-15T16:31:35.648Z,99032.72
2022-12-15T16:34:05.605Z,99041.03
2022-12-15T16:36:32.741Z,99036.47
2022-12-15T16:38:59.209Z,99048.94
2022-12-15T16:41:25.760Z,99044.56
2022-12-15T16:43:54.301Z,99053.44
2022-12-15T16:46:21.835Z,99050.75
2022-12-15T16:48:49.849Z,99045.53
2022-12-15T16:51:28.777Z,99052.84
2022-12-15T16:53:55.470Z,99050.19
2022-12-15T16:56:21.923Z,99056.50
2022-12-15T16:58:57.476Z,99061.03
2022-12-15T17:01:29.529Z,99060.19
2022-12-15T17:03:57.956Z,99059.16
2022-12-15T17:06:24.528Z,99064.75
2022-12-15T17:08:54.529Z,99068.28
2022-12-15T17:11:23.178Z,99067.50
2022-12-15T17:13:51.099Z,99066.63
2022-12-15T17:16:18.750Z,99065.06
2022-12-15T17:18:45.711Z,99066.13
2022-12-15T17:24:23.469Z,99056.59
2022-12-15T17:26:50.926Z,99077.75
2022-12-15T17:29:20.724Z,99065.44
2022-12-15T17:35:44.711Z,99073.53
2022-12-15T17:41:58.053Z,99086.97
2022-12-15T17:44:36.921Z,99091.53
2022-12-15T17:47:53.699Z,99088.50
2022-12-15T17:50:23.721Z,99089.09
2022-12-15T17:52:50.445Z,99092.69
2022-12-15T17:58:43.813Z,99109.66
2022-12-15T18:01:12.799Z,99115.00
2022-12-15T18:03:39.388Z,99102.78
2022-12-15T18:06:11.390Z,99105.50
2022-12-15T18:08:37.935Z,99103.31
2022-12-15T18:11:04.748Z,99097.09
2022-12-15T18:13:35.440Z,99085.50
2022-12-15T18:16:03.994Z,99080.22
2022-12-15T18:18:30.993Z,99084.69
2022-12-15T18:21:08.883Z,99080.59
2022-12-15T18:23:36.909Z,99075.38
2022-12-15T18:26:03.534Z,99076.19
2022-12-15T18:28:41.152Z,99069.31
2022-12-15T18:31:19.136Z,99066.72
2022-12-15T18:33:46.073Z,99068.44
2022-12-15T18:36:13.202Z,99068.84
2022-12-15T18:38:39.765Z,99072.31
2022-12-15T18:41:06.280Z,99063.50
2022-12-15T18:43:35.621Z,99076.88
2022-12-15T18:46:03.591Z,99072.19
2022-12-15T18:48:33.488Z,99072.03
2022-12-15T18:51:02.228Z,99068.53
2022-12-15T18:53:33.213Z,99061.69
2022-12-15T18:56:01.913Z,99062.41
2022-12-15T18:58:30.550Z,99058.81
2022-12-15T19:00:58.856Z,99067.75
2022-12-15T19:03:35.543Z,99082.88
2022-12-15T19:06:06.500Z,99074.13
2022-12-15T19:08:33.027Z,99078.78
2022-12-15T19:11:02.100Z,99078.91
2022-12-15T19:13:30.782Z,99078.25
2022-12-15T19:15:59.939Z,99071.94
2022-12-15T19:18:26.723Z,99068.63
2022-12-15T19:20:54.687Z,99074.88
2022-12-15T19:23:21.809Z,99066.91
2022-12-15T19:25:53.522Z,99068.81
2022-12-15T19:28:23.905Z,99068.00
2022-12-15T19:30:51.156Z,99064.38
2022-12-15T19:33:21.512Z,99056.47
2022-12-15T19:36:15.995Z,99063.22
2022-12-15T19:38:44.645Z,99064.94
2022-12-15T19:41:17.799Z,99062.22
2022-12-15T19:43:44.482Z,99067.31
2022-12-15T19:46:14.426Z,99073.41
2022-12-15T19:48:40.962Z,99067.13
2022-12-15T19:51:13.276Z,99060.41
2022-12-15T19:53:44.982Z,99056.41
2022-12-15T19:56:17.241Z,99061.91
2022-12-15T19:58:43.826Z,99067.53
2022-12-15T20:01:12.595Z,99066.75
2022-12-15T20:03:39.521Z,99067.59
2022-12-15T20:06:14.345Z,99071.75
2022-12-15T20:08:46.400Z,99074.41
2022-12-15T20:11:18.210Z,99062.06
2022-12-15T20:13:45.199Z,99065.72
2022-12-15T20:16:12.379Z,99060.50
2022-12-15T20:18:38.995Z,99065.03
2022-12-15T20:21:32.199Z,99051.56
2022-12-15T20:24:05.548Z,99056.69
2022-12-15T20:26:33.783Z,99056.81
2022-12-15T20:29:24.907Z,99062.13
2022-12-15T20:32:38.568Z,99051.56
2022-12-15T20:35:39.236Z,99049.84
2022-12-15T20:41:39.529Z,99050.38
2022-12-15T20:44:26.332Z,99056.63
2022-12-15T20:50:30.149Z,99050.13
2022-12-15T20:53:29.291Z,99055.22
2022-12-15T20:55:56.182Z,99052.47
2022-12-15T20:58:28.321Z,99056.97
2022-12-15T21:01:01.136Z,99053.50
2022-12-15T21:03:29.887Z,99057.25
2022-12-15T21:05:58.629Z,99055.84
2022-12-15T21:08:26.883Z,99069.94
2022-12-15T21:10:55.841Z,99069.72
2022-12-15T21:13:27.154Z,99063.47
2022-12-15T21:15:54.288Z,99066.16
2022-12-15T21:19:11.060Z,99061.75
2022-12-15T21:21:16.460Z,99067.88
2022-12-15T21:23:43.094Z,99062.66
2022-12-15T21:26:10.587Z,99063.22
2022-12-15T21:28:40.514Z,99065.03
2022-12-15T21:31:10.033Z,99058.06
2022-12-15T21:33:37.936Z,99059.22
2022-12-15T21:36:04.741Z,99060.97
2022-12-15T21:38:35.958Z,99068.72
2022-12-15T21:41:06.987Z,99067.13
2022-12-15T21:43:35.608Z,99068.63
2022-12-15T21:46:13.202Z,99064.47
2022-12-15T21:48:39.750Z,99073.63
2022-12-15T21:51:08.904Z,99071.19
2022-12-15T21:53:35.436Z,99080.59
2022-12-15T21:56:01.902Z,99073.69
2022-12-15T21:58:28.850Z,99072.13
2022-12-15T22:00:55.611Z,99087.97
2022-12-15T22:03:23.667Z,99083.69
2022-12-15T22:05:50.199Z,99078.31
2022-12-15T22:08:18.739Z,99078.16
2022-12-15T22:10:46.655Z,99082.31
2022-12-15T22:13:19.518Z,99078.16
2022-12-15T22:15:46.692Z,99069.19
2022-12-15T22:18:15.433Z,99076.38
2022-12-15T22:20:43.345Z,99070.19
2022-12-15T22:23:09.814Z,99079.75
2022-12-15T22:25:36.316Z,99073.38
2022-12-15T22:28:02.812Z,99073.09
2022-12-15T22:30:29.642Z,99081.84
2022-12-15T22:32:56.172Z,99085.66
2022-12-15T22:35:24.616Z,99079.38
2022-12-15T22:37:52.791Z,99081.28
2022-12-15T22:40:20.970Z,99084.78
2022-12-15T22:42:52.465Z,99088.94
2022-12-15T22:45:22.493Z,99079.47
2022-12-15T22:47:50.321Z,99093.78
2022-12-15T22:50:20.697Z,99103.16
2022-12-15T22:52:47.519Z,99100.63
2022-12-15T22:55:17.611Z,99101.56
2022-12-15T22:57:46.715Z,99096.38
2022-12-15T23:00:14.872Z,99110.03
2022-12-15T23:02:46.295Z,99110.91
2022-12-15T23:05:14.916Z,99104.63
2022-12-15T23:07:42.104Z,99096.66
2022-12-15T23:10:10.503Z,99101.91
2022-12-15T23:12:39.606Z,99106.44
2022-12-15T23:15:07.391Z,99097.44
2022-12-15T23:17:34.120Z,99101.63
2022-12-15T23:20:00.608Z,99107.03
2022-12-15T23:22:27.100Z,99114.88
2022-12-15T23:24:53.599Z,99105.28
2022-12-15T23:27:21.707Z,99116.81
2022-12-15T23:29:51.635Z,99116.94
2022-12-15T23:32:18.300Z,99115.28
2022-12-15T23:34:45.039Z,99123.28
2022-12-15T23:37:11.492Z,99115.97
2022-12-15T23:39:38.083Z,99118.59
2022-12-15T23:42:04.712Z,99122.94
2022-12-15T23:44:33.059Z,99122.84
2022-12-15T23:47:01.071Z,99113.16
2022-12-15T23:49:27.844Z,99118.34
2022-12-15T23:51:54.336Z,99114.72
2022-12-15T23:54:21.775Z,99120.13
2022-12-15T23:56:48.240Z,99125.41
2022-12-15T23:59:17.025Z,99129.91
